Terminal Aerodrome Forecast
Issued by NWS Paducah, KY

Home | Current Version | Previous Version | Text Only | Print | Product List | Glossary Off
Versions: 1 2 3 4 5 6 7 8 9 10 11 12 13 14 15 16 17 18 19 20 21 22

423
FTUS43 KPAH 232326
TAFEVV
TAF
KEVV 232326Z 2400/2424 29007KT P6SM OVC027
     FM241200 26005KT P6SM OVC015
     FM241700 28009KT P6SM SCT025 BKN080
     FM242100 29006KT P6SM FEW030=

USA.gov is the U.S. government's official web portal to all federal, state and local government web resources and services.